Terminal Aerodrome Forecast
Issued by NWS Cleveland, OH

Home | Current Version | Previous Version | Graphics & Text | Print | Product List | Glossary Off
Versions: 1 2 3 4 5 6 7 8 9 10 11 12 13 14 15 16

000
FTUS41 KCLE 071724
TAFYNG
TAF
KYNG 071724Z 0718/0818 21012G20KT P6SM VCTS BKN030CB
     FM072000 22012G20KT P6SM VCTS BKN035CB
      TEMPO 0721/0801 3SM -TSRA BR BKN015 OVC040CB
     FM080100 24010KT 3SM -SHRA BR SCT007 OVC015
     FM080400 29007KT 4SM -SHRA BR OVC007
     FM081000 02008KT 5SM BR VCSH OVC008=

USA.gov is the U.S. government's official web portal to all federal, state and local government web resources and services.